Time;durP1;ratioP1;P1;durP2;ratioP2;P2;SDS_P1;SDS_P2;PMS_P1;PMS_P2;Temp;Humidity;BMP_temperature;BMP_pressure;BME280_temperature;BME280_humidity;BME280_pressure;Samples;Min_cycle;Max_cycle;Signal;HPM_P1;HPM_P2
2022/01/31 00:00:24;;;;;;;10.52;4.45;;;154.30;1740.80;;;;;;4951831;29;20055;-66
2022/01/31 00:02:49;;;;;;;15.63;6.18;;;154.40;1715.20;;;;;;4951887;29;20046;-69
2022/01/31 00:05:16;;;;;;;13.00;7.70;;;154.30;1715.20;;;;;;4951392;29;20035;-71
2022/01/31 00:07:43;;;;;;;19.13;11.55;;;154.30;1715.20;;;;;;4951923;29;20031;-71
2022/01/31 00:10:11;;;;;;;6.50;3.75;;;154.30;1715.20;;;;;;4951698;29;20537;-71
2022/01/31 00:12:50;;;;;;;10.20;3.60;;;154.10;1740.80;;;;;;4951533;29;20126;-68
2022/01/31 00:15:16;;;;;;;11.88;5.13;;;154.20;1740.80;;;;;;4951461;29;20473;-71
2022/01/31 00:17:42;;;;;;;9.52;3.97;;;154.10;1740.80;;;;;;4951837;29;20114;-69
2022/01/31 00:20:08;;;;;;;12.32;7.05;;;154.10;1740.80;;;;;;4951717;29;20024;-71
2022/01/31 00:22:34;;;;;;;17.08;7.78;;;154.00;1766.40;;;;;;4951434;29;20038;-62
2022/01/31 00:24:59;;;;;;;37.47;18.60;;;153.90;1766.40;;;;;;4951643;29;20035;-72
2022/01/31 00:27:25;;;;;;;14.05;7.40;;;153.90;1766.40;;;;;;4951516;29;20047;-69
2022/01/31 00:29:51;;;;;;;20.70;10.77;;;153.90;1766.40;;;;;;4951698;29;20373;-69
2022/01/31 00:32:16;;;;;;;7.25;3.53;;;154.00;1740.80;;;;;;4949728;28;20500;-71
2022/01/31 00:34:42;;;;;;;26.77;16.13;;;154.00;1766.40;;;;;;4951358;29;20521;-71
2022/01/31 00:37:08;;;;;;;22.90;11.02;;;154.00;1766.40;;;;;;4951485;29;20068;-72
2022/01/31 00:39:36;;;;;;;19.05;9.95;;;154.00;1766.40;;;;;;4951689;29;20020;-70
2022/01/31 00:42:04;;;;;;;8.38;3.33;;;153.80;1766.40;;;;;;4951535;28;20038;-71
2022/01/31 00:44:41;;;;;;;13.98;7.43;;;153.80;1792.00;;;;;;4953376;28;20066;-72
2022/01/31 00:47:17;;;;;;;15.93;13.27;;;153.80;1792.00;;;;;;4955014;29;20042;-71
2022/01/31 00:49:50;;;;;;;43.55;28.40;;;153.80;1792.00;;;;;;4955101;29;20457;-71
2022/01/31 00:52:16;;;;;;;6.10;3.22;;;153.90;1766.40;;;;;;4954493;29;20035;-69
2022/01/31 00:54:42;;;;;;;7.22;4.07;;;153.80;1792.00;;;;;;4954757;29;20035;-71
2022/01/31 00:57:07;;;;;;;6.57;2.53;;;153.80;1792.00;;;;;;4954823;29;20362;-70
2022/01/31 00:59:33;;;;;;;11.23;4.05;;;153.70;1817.60;;;;;;4954764;28;20031;-71
2022/01/31 01:01:59;;;;;;;8.80;4.50;;;153.70;1817.60;;;;;;4954737;29;20031;-70
2022/01/31 01:04:25;;;;;;;13.98;8.57;;;153.70;1792.00;;;;;;4954495;29;20035;-71
2022/01/31 01:06:50;;;;;;;10.10;5.15;;;153.60;1792.00;;;;;;4954549;29;20382;-69
2022/01/31 01:09:16;;;;;;;13.23;5.18;;;153.60;1792.00;;;;;;4954339;28;20134;-70
2022/01/31 01:11:42;;;;;;;10.20;4.88;;;153.60;1792.00;;;;;;4954474;29;20093;-68
2022/01/31 01:14:08;;;;;;;6.63;3.47;;;128.90;1792.00;;;;;;4954431;29;20031;-70
2022/01/31 01:16:34;;;;;;;11.73;4.00;;;153.60;1817.60;;;;;;4954216;29;20036;-63
2022/01/31 01:19:00;;;;;;;31.40;14.85;;;128.90;1817.60;;;;;;4954524;29;20027;-70
2022/01/31 01:21:25;;;;;;;9.85;4.82;;;128.90;1817.60;;;;;;4954070;29;20488;-69
2022/01/31 01:23:51;;;;;;;6.65;3.03;;;128.80;1817.60;;;;;;4954322;29;20035;-69
2022/01/31 01:26:18;;;;;;;7.78;2.95;;;128.80;1817.60;;;;;;4954351;29;20027;-69
2022/01/31 01:28:45;;;;;;;17.83;5.93;;;128.90;1817.60;;;;;;4954200;29;20095;-64
2022/01/31 01:31:11;;;;;;;21.58;12.05;;;128.80;1843.20;;;;;;4954240;29;20031;-65
2022/01/31 01:33:40;;;;;;;12.68;4.65;;;128.80;1817.60;;;;;;4953969;29;20051;-69
2022/01/31 01:36:07;;;;;;;9.50;4.88;;;128.80;1843.20;;;;;;4953665;29;20043;-69
2022/01/31 01:38:33;;;;;;;12.55;5.40;;;128.80;1817.60;;;;;;4953958;29;20103;-63
2022/01/31 01:41:00;;;;;;;9.30;4.38;;;128.80;1817.60;;;;;;4954127;29;20031;-68
2022/01/31 01:43:29;;;;;;;11.45;8.38;;;128.80;1817.60;;;;;;4953897;29;20028;-66
2022/01/31 01:45:56;;;;;;;10.60;4.05;;;128.70;1817.60;;;;;;4953742;29;20110;-69
2022/01/31 01:48:23;;;;;;;15.90;10.00;;;128.70;1843.20;;;;;;4953979;29;20202;-69
2022/01/31 01:50:50;;;;;;;10.32;5.88;;;128.50;1843.20;;;;;;4953914;29;20027;-66
2022/01/31 01:53:16;;;;;;;10.10;5.07;;;128.40;1843.20;;;;;;4953468;29;20048;-69
2022/01/31 01:55:45;;;;;;;11.80;4.43;;;128.30;1894.40;;;;;;4953003;28;20024;-68
2022/01/31 01:58:16;;;;;;;9.75;4.55;;;128.30;1868.80;;;;;;4953646;29;20046;-67
2022/01/31 02:00:50;;;;;;;32.03;18.05;;;128.30;1894.40;;;;;;4953745;29;20118;-70
2022/01/31 02:03:17;;;;;;;24.58;12.57;;;128.30;1894.40;;;;;;4953322;29;20103;-68
2022/01/31 02:05:43;;;;;;;65.65;36.90;;;128.30;1868.80;;;;;;4953639;29;20086;-67
2022/01/31 02:08:13;;;;;;;60.80;31.05;;;128.30;1894.40;;;;;;4953498;29;20031;-67
2022/01/31 02:10:38;;;;;;;81.50;46.45;;;128.40;1868.80;;;;;;4953382;29;20027;-68
2022/01/31 02:13:06;;;;;;;40.10;22.02;;;128.30;1868.80;;;;;;4953090;29;20489;-59
2022/01/31 02:15:33;;;;;;;15.90;7.15;;;128.20;1868.80;;;;;;4953461;29;20035;-67
2022/01/31 02:17:58;;;;;;;21.02;12.77;;;128.20;1894.40;;;;;;4953100;29;20035;-68
2022/01/31 02:20:24;;;;;;;26.73;13.60;;;128.20;1894.40;;;;;;4953089;29;20035;-61
2022/01/31 02:22:50;;;;;;;23.20;11.80;;;128.10;1920.00;;;;;;4953146;29;20038;-69
2022/01/31 02:25:16;;;;;;;494.55;304.70;;;103.30;1920.00;;;;;;4953157;29;20039;-61
2022/01/31 02:27:43;;;;;;;37.05;22.27;;;103.20;1920.00;;;;;;4953165;29;20035;-68
2022/01/31 02:30:12;;;;;;;66.60;50.83;;;103.20;1920.00;;;;;;4952999;29;20521;-69
2022/01/31 02:32:38;;;;;;;25.75;11.98;;;103.10;1920.00;;;;;;4952832;29;20043;-69
2022/01/31 02:35:05;;;;;;;12.23;6.30;;;103.30;1894.40;;;;;;4952961;29;20451;-70
2022/01/31 02:37:31;;;;;;;44.85;29.67;;;103.30;1894.40;;;;;;4952830;29;20039;-69
2022/01/31 02:39:57;;;;;;;16.63;9.00;;;103.30;1894.40;;;;;;4952753;29;20035;-63
2022/01/31 02:42:23;;;;;;;31.27;27.40;;;103.30;1894.40;;;;;;4952972;29;20493;-62
2022/01/31 02:44:49;;;;;;;21.45;16.90;;;103.30;1894.40;;;;;;4952725;28;20058;-70
2022/01/31 02:47:22;;;;;;;10.95;6.05;;;103.20;1920.00;;;;;;4952458;29;20037;-70
2022/01/31 02:49:54;;;;;;;11.10;5.28;;;103.20;1894.40;;;;;;4952608;29;20071;-61
2022/01/31 02:52:19;;;;;;;10.02;3.55;;;103.20;1894.40;;;;;;4952468;29;20070;-69
2022/01/31 02:54:46;;;;;;;12.43;5.88;;;103.10;1920.00;;;;;;4952684;29;20055;-66
2022/01/31 02:57:12;;;;;;;11.48;5.88;;;103.20;1920.00;;;;;;4952732;29;20035;-70
2022/01/31 02:59:38;;;;;;;8.77;4.60;;;103.10;1945.60;;;;;;4952503;29;20497;-70
2022/01/31 03:02:04;;;;;;;8.25;3.20;;;103.10;1945.60;;;;;;4952383;29;20063;-59
2022/01/31 03:04:30;;;;;;;10.73;3.80;;;103.00;1945.60;;;;;;4952415;29;20039;-68
2022/01/31 03:06:56;;;;;;;9.63;3.95;;;103.10;1945.60;;;;;;4952121;28;20172;-65
2022/01/31 03:09:22;;;;;;;9.23;4.88;;;103.10;1945.60;;;;;;4952275;29;20063;-60
2022/01/31 03:11:48;;;;;;;8.68;4.47;;;103.00;1945.60;;;;;;4952146;29;20035;-66
2022/01/31 03:14:18;;;;;;;13.52;4.35;;;103.00;1945.60;;;;;;4952060;29;20529;-68
2022/01/31 03:16:48;;;;;;;8.38;4.50;;;103.00;1945.60;;;;;;4951994;29;20058;-64
2022/01/31 03:19:16;;;;;;;9.13;5.47;;;103.00;1971.20;;;;;;4951988;29;20027;-64
2022/01/31 03:21:42;;;;;;;7.43;2.28;;;102.90;1945.60;;;;;;4952157;29;20031;-69
2022/01/31 03:24:09;;;;;;;7.88;4.38;;;103.00;1945.60;;;;;;4952317;29;20110;-70
2022/01/31 03:26:36;;;;;;;12.02;6.30;;;103.00;1945.60;;;;;;4952086;29;20087;-64
2022/01/31 03:29:02;;;;;;;19.60;10.95;;;102.80;1971.20;;;;;;4952449;29;20493;-70
2022/01/31 03:31:28;;;;;;;9.13;4.60;;;102.80;1971.20;;;;;;4951744;29;20382;-62
2022/01/31 03:33:55;;;;;;;15.93;10.00;;;102.80;1971.20;;;;;;4951542;29;20035;-67
2022/01/31 03:36:21;;;;;;;9.90;4.57;;;102.80;1971.20;;;;;;4951963;28;20037;-67
2022/01/31 03:38:48;;;;;;;8.18;5.68;;;102.80;1971.20;;;;;;4934863;29;20098;-68
2022/01/31 03:41:17;;;;;;;18.67;11.85;;;102.70;1996.80;;;;;;4952107;29;20023;-66
2022/01/31 03:43:43;;;;;;;12.43;7.00;;;102.70;1996.80;;;;;;4952128;29;20031;-66
2022/01/31 03:46:09;;;;;;;15.80;9.88;;;102.60;2022.40;;;;;;4951807;29;20489;-64
2022/01/31 03:48:36;;;;;;;11.18;7.70;;;102.60;2022.40;;;;;;4951761;29;20023;-64
2022/01/31 03:51:03;;;;;;;6.05;3.15;;;102.70;1996.80;;;;;;4951751;29;20515;-66
2022/01/31 03:53:30;;;;;;;10.48;5.97;;;102.60;2022.40;;;;;;4951494;29;20047;-62
2022/01/31 03:55:55;;;;;;;16.23;11.50;;;102.60;2022.40;;;;;;4951877;29;20034;-66
2022/01/31 03:58:21;;;;;;;17.33;12.02;;;102.60;2022.40;;;;;;4951959;29;20035;-68
2022/01/31 04:00:47;;;;;;;18.02;14.48;;;102.50;2022.40;;;;;;4934199;29;20064;-68
2022/01/31 04:03:13;;;;;;;6.18;3.40;;;102.60;2022.40;;;;;;4951700;28;20031;-61
2022/01/31 04:05:39;;;;;;;8.05;4.72;;;102.60;2022.40;;;;;;4951921;29;20035;-65
2022/01/31 04:08:06;;;;;;;4.88;2.58;;;102.50;2022.40;;;;;;4951496;29;20118;-58
2022/01/31 04:10:34;;;;;;;11.35;6.07;;;102.40;2073.60;;;;;;4951866;29;20055;-68
2022/01/31 04:13:00;;;;;;;20.08;13.85;;;77.60;2124.80;;;;;;4951713;29;20043;-59
2022/01/31 04:15:26;;;;;;;22.50;11.18;;;77.50;2124.80;;;;;;4951427;29;20056;-66
2022/01/31 04:17:52;;;;;;;15.48;10.10;;;77.50;2124.80;;;;;;4951880;28;20063;-63
2022/01/31 04:20:19;;;;;;;13.40;9.30;;;77.50;2099.20;;;;;;4954919;29;20494;-67
2022/01/31 04:23:20;;;;;;;17.75;12.23;;;77.60;2073.60;;;;;;4937890;29;20102;-68
2022/01/31 04:28:39;;;;;;;33.85;21.50;;;77.60;2099.20;;;;;;4955410;29;20078;-61
2022/01/31 04:33:46;;;;;;;;;;;77.60;2124.80;;;;;;4955549;29;20054;-68
2022/01/31 04:36:15;;;;;;;25.60;15.45;;;77.50;2124.80;;;;;;4955135;29;19929;-63
2022/01/31 04:38:45;;;;;;;28.25;13.65;;;77.50;2124.80;;;;;;4937981;29;20032;-68
2022/01/31 04:41:11;;;;;;;21.85;9.13;;;77.50;2150.40;;;;;;4955239;29;20071;-65
2022/01/31 04:43:37;;;;;;;32.22;16.55;;;77.40;2201.60;;;;;;4954928;29;20027;-68
2022/01/31 04:46:06;;;;;;;42.20;21.10;;;77.40;2176.00;;;;;;4955248;29;20031;-67
2022/01/31 04:48:32;;;;;;;56.45;30.92;;;77.60;2150.40;;;;;;4954976;29;20550;-69
2022/01/31 04:50:58;;;;;;;32.15;16.35;;;77.60;2150.40;;;;;;4954787;29;20027;-68
2022/01/31 04:53:23;;;;;;;17.77;8.00;;;77.60;2150.40;;;;;;4954925;29;20477;-60
2022/01/31 04:55:49;;;;;;;31.35;16.25;;;77.70;2124.80;;;;;;4954935;29;20027;-61
2022/01/31 04:58:15;;;;;;;15.95;9.25;;;77.60;2150.40;;;;;;4954525;29;20091;-68
2022/01/31 05:00:42;;;;;;;18.92;10.02;;;77.60;2150.40;;;;;;4954840;29;20027;-60
2022/01/31 05:03:13;;;;;;;54.10;32.08;;;77.60;2176.00;;;;;;4954523;29;20040;-66
2022/01/31 05:05:40;;;;;;;36.00;17.92;;;77.70;2150.40;;;;;;4954575;29;20039;-60
2022/01/31 05:08:06;;;;;;;44.88;24.02;;;77.70;2150.40;;;;;;4954333;29;20613;-60
2022/01/31 05:10:35;;;;;;;42.97;26.75;;;77.70;2124.80;;;;;;4937211;29;20042;-67
2022/01/31 05:13:01;;;;;;;23.83;14.88;;;77.50;2201.60;;;;;;4954434;29;20055;-60
2022/01/31 05:15:27;;;;;;;38.22;18.48;;;77.30;2227.20;;;;;;4954192;29;20027;-60
2022/01/31 05:17:54;;;;;;;50.40;29.65;;;77.10;2227.20;;;;;;4954479;29;20378;-60
2022/01/31 05:20:20;;;;;;;31.05;16.55;;;77.00;2227.20;;;;;;4954461;29;20027;-60
2022/01/31 05:22:46;;;;;;;53.20;30.58;;;76.90;2227.20;;;;;;4954016;29;20039;-60
2022/01/31 05:25:11;;;;;;;27.58;16.58;;;76.80;2227.20;;;;;;4936784;29;20502;-60
2022/01/31 05:27:37;;;;;;;36.33;20.85;;;76.80;2227.20;;;;;;4954067;29;20027;-60
2022/01/31 05:30:04;;;;;;;52.63;30.73;;;52.10;2227.20;;;;;;4953153;28;20027;-60
2022/01/31 05:32:30;;;;;;;57.13;38.95;;;52.10;2227.20;;;;;;4953955;29;20198;-64
2022/01/31 05:34:55;;;;;;;53.08;34.25;;;76.90;2227.20;;;;;;4953644;29;20051;-60
2022/01/31 05:37:21;;;;;;;49.72;29.42;;;76.90;2227.20;;;;;;4952829;29;20047;-68
2022/01/31 05:39:47;;;;;;;49.13;25.95;;;76.80;2227.20;;;;;;4953757;29;20439;-60
2022/01/31 05:42:13;;;;;;;58.50;32.47;;;52.10;2227.20;;;;;;4953807;29;20379;-60
2022/01/31 05:44:39;;;;;;;47.33;26.88;;;51.90;2227.20;;;;;;4954058;29;20051;-60
2022/01/31 05:47:05;;;;;;;44.65;30.15;;;52.00;2227.20;;;;;;4953612;29;20418;-60
2022/01/31 05:49:32;;;;;;;79.68;42.28;;;52.00;2227.20;;;;;;4953923;29;20383;-68
2022/01/31 05:52:04;;;;;;;48.33;24.73;;;52.00;2227.20;;;;;;4953372;29;20039;-61
2022/01/31 05:54:31;;;;;;;55.83;38.83;;;51.90;2227.20;;;;;;4953647;29;20051;-60
2022/01/31 05:56:57;;;;;;;52.25;31.83;;;52.00;2227.20;;;;;;4953470;29;20032;-60
2022/01/31 05:59:23;;;;;;;41.40;23.90;;;52.10;2227.20;;;;;;4953539;29;20031;-68
2022/01/31 06:01:49;;;;;;;33.97;16.70;;;52.00;2227.20;;;;;;4953685;29;20031;-60
2022/01/31 06:04:15;;;;;;;21.90;12.90;;;51.90;2227.20;;;;;;4953098;29;20371;-60
2022/01/31 06:06:41;;;;;;;20.63;14.57;;;52.10;2227.20;;;;;;4953588;29;20038;-60
2022/01/31 06:09:07;;;;;;;31.38;18.45;;;52.10;2227.20;;;;;;4953283;29;20152;-64
2022/01/31 06:11:34;;;;;;;31.92;16.60;;;76.90;2227.20;;;;;;4953413;29;20144;-59
2022/01/31 06:14:10;;;;;;;23.25;14.32;;;76.80;2227.20;;;;;;4952884;29;20035;-60
2022/01/31 06:16:36;;;;;;;44.47;24.20;;;76.80;2227.20;;;;;;4953121;29;20102;-60
2022/01/31 06:19:03;;;;;;;19.27;12.27;;;76.90;2227.20;;;;;;4953409;29;20110;-60
2022/01/31 06:21:28;;;;;;;30.40;15.15;;;76.80;2227.20;;;;;;4953064;29;20028;-64
2022/01/31 06:23:54;;;;;;;23.92;14.82;;;76.90;2227.20;;;;;;4953046;29;20050;-59
2022/01/31 06:26:21;;;;;;;29.67;18.55;;;77.10;2227.20;;;;;;4952985;29;20050;-56
2022/01/31 06:28:48;;;;;;;24.27;15.25;;;77.40;2227.20;;;;;;4952604;29;20023;-55
2022/01/31 06:31:15;;;;;;;49.25;25.98;;;77.50;2227.20;;;;;;4952994;29;20038;-55
2022/01/31 06:33:41;;;;;;;48.17;30.38;;;77.60;2227.20;;;;;;4952859;29;20375;-54
2022/01/31 06:36:07;;;;;;;55.15;31.25;;;77.60;2227.20;;;;;;4935068;29;20047;-55
2022/01/31 06:38:35;;;;;;;44.90;25.50;;;77.60;2227.20;;;;;;4952139;29;20433;-59
2022/01/31 06:41:04;;;;;;;32.25;19.05;;;77.70;2227.20;;;;;;4952188;28;20015;-57
2022/01/31 06:43:30;;;;;;;39.10;22.77;;;102.50;2227.20;;;;;;4952231;29;20030;-58
2022/01/31 06:45:56;;;;;;;35.00;22.25;;;102.50;2227.20;;;;;;4952387;29;20035;-56
2022/01/31 06:48:22;;;;;;;36.55;23.10;;;102.70;2227.20;;;;;;4952884;29;20066;-58
2022/01/31 06:50:48;;;;;;;49.45;28.35;;;102.80;2227.20;;;;;;4952435;29;20442;-56
2022/01/31 06:53:16;;;;;;;41.70;25.27;;;103.00;2201.60;;;;;;4952540;29;20045;-55
2022/01/31 06:55:42;;;;;;;46.97;30.92;;;103.10;2176.00;;;;;;4952664;29;20026;-57
2022/01/31 06:58:08;;;;;;;44.13;29.83;;;103.10;2176.00;;;;;;4952550;29;20028;-58
2022/01/31 07:00:35;;;;;;;27.85;17.00;;;103.00;2176.00;;;;;;4952505;29;20270;-56
2022/01/31 07:03:03;;;;;;;25.13;17.13;;;103.10;2176.00;;;;;;4952554;29;20090;-58
2022/01/31 07:05:28;;;;;;;120.82;71.75;;;103.10;2176.00;;;;;;4952112;29;20039;-58
2022/01/31 07:07:54;;;;;;;130.35;76.38;;;103.10;2176.00;;;;;;4952255;29;20532;-57
2022/01/31 07:10:20;;;;;;;66.10;37.00;;;103.20;2150.40;;;;;;4952204;29;20474;-58
2022/01/31 07:12:53;;;;;;;73.40;41.45;;;103.30;2150.40;;;;;;4952112;29;20050;-58
2022/01/31 07:15:19;;;;;;;54.60;29.67;;;128.10;2150.40;;;;;;4952090;29;20478;-59
2022/01/31 07:17:46;;;;;;;56.03;29.80;;;128.20;2124.80;;;;;;4952240;29;20056;-57
2022/01/31 07:23:02;;;;;;;21.17;12.35;;;128.90;2073.60;;;;;;4951983;29;20511;-58
2022/01/31 07:25:37;;;;;;;26.45;14.43;;;153.90;1996.80;;;;;;4951991;29;20419;-58
2022/01/31 07:28:08;;;;;;;32.92;14.52;;;154.20;1945.60;;;;;;4952214;29;20159;-58
2022/01/31 07:30:34;;;;;;;31.73;18.30;;;154.50;1920.00;;;;;;4952026;29;20095;-58
2022/01/31 07:33:00;;;;;;;38.47;20.52;;;154.50;1920.00;;;;;;4952096;29;20054;-60
2022/01/31 07:35:26;;;;;;;50.45;32.70;;;179.30;1894.40;;;;;;4951515;29;20051;-60
2022/01/31 07:37:52;;;;;;;96.40;64.85;;;179.30;1868.80;;;;;;4971258;28;20111;-59
2022/01/31 07:40:18;;;;;;;128.85;96.80;;;179.30;1868.80;;;;;;4971378;28;20122;-60
2022/01/31 07:42:44;;;;;;;176.55;100.18;;;179.30;1868.80;;;;;;4971303;28;20035;-59
2022/01/31 07:45:10;;;;;;;183.60;113.75;;;179.20;1868.80;;;;;;4971459;28;20425;-56
2022/01/31 07:47:35;;;;;;;92.65;61.08;;;179.30;1868.80;;;;;;4971001;28;20065;-56
2022/01/31 07:50:04;;;;;;;87.05;57.92;;;179.30;1868.80;;;;;;4971259;28;20038;-56
2022/01/31 07:52:30;;;;;;;98.15;63.03;;;179.40;1868.80;;;;;;4971099;28;20034;-58
2022/01/31 07:54:55;;;;;;;96.10;59.28;;;179.30;1868.80;;;;;;4973914;28;20077;-60
2022/01/31 07:57:24;;;;;;;83.05;51.47;;;179.40;1843.20;;;;;;4975324;28;20026;-59
2022/01/31 07:59:50;;;;;;;102.80;57.15;;;179.50;1817.60;;;;;;4975353;28;20058;-59
2022/01/31 08:02:16;;;;;;;33.35;21.58;;;179.60;1792.00;;;;;;4975034;28;20113;-60
2022/01/31 08:04:42;;;;;;;72.57;51.47;;;179.60;1792.00;;;;;;4975120;28;20489;-58
2022/01/31 08:07:07;;;;;;;39.42;26.42;;;179.80;1766.40;;;;;;4974801;28;20488;-59
2022/01/31 08:09:34;;;;;;;58.67;34.78;;;179.70;1792.00;;;;;;4957668;28;20469;-58
2022/01/31 08:12:00;;;;;;;66.68;41.13;;;180.00;1740.80;;;;;;4975089;28;20038;-57
2022/01/31 08:14:27;;;;;;;55.83;34.88;;;180.10;1715.20;;;;;;4974667;28;20034;-58
2022/01/31 08:16:52;;;;;;;59.60;40.03;;;204.80;1715.20;;;;;;4974882;28;20026;-61
2022/01/31 08:19:18;;;;;;;45.28;25.70;;;205.00;1689.60;;;;;;4974670;28;20062;-61
2022/01/31 08:21:44;;;;;;;210.43;131.38;;;205.20;1664.00;;;;;;4974669;28;20489;-62
2022/01/31 08:24:10;;;;;;;59.42;33.53;;;205.30;1664.00;;;;;;4974800;28;20081;-61
2022/01/31 08:26:35;;;;;;;26.55;15.75;;;205.50;1638.40;;;;;;4974929;28;20130;-61
2022/01/31 08:29:16;;;;;;;38.55;19.90;;;205.50;1612.80;;;;;;4974872;28;20035;-61
2022/01/31 08:31:42;;;;;;;39.90;22.85;;;230.40;1587.20;;;;;;4974784;28;20033;-58
2022/01/31 08:36:40;;;;;;;73.72;45.40;;;230.90;1536.00;;;;;;4955220;28;20047;-59
2022/01/31 08:39:18;;;;;;;36.42;23.38;;;256.20;1510.40;;;;;;4954763;29;20035;-59
2022/01/31 08:41:47;;;;;;;38.08;24.67;;;282.30;1459.20;;;;;;4955060;29;20377;-58
2022/01/31 08:44:15;;;;;;;21.08;12.73;;;308.00;1382.40;;;;;;4938303;29;20110;-58
2022/01/31 08:46:41;;;;;;;73.65;54.75;;;358.50;1280.00;;;;;;4954880;29;20027;-59
2022/01/31 08:49:08;;;;;;;24.25;14.40;;;359.20;1228.80;;;;;;4954748;29;20035;-60
2022/01/31 08:51:35;;;;;;;19.00;13.07;;;384.10;1203.20;;;;;;4954490;29;20047;-58
2022/01/31 08:54:01;;;;;;;15.15;8.10;;;358.90;1203.20;;;;;;4954824;29;20386;-59
2022/01/31 08:56:27;;;;;;;34.25;20.92;;;333.00;1305.60;;;;;;4954577;29;20042;-57
2022/01/31 08:58:52;;;;;;;60.65;44.63;;;333.10;1305.60;;;;;;4954903;29;20042;-59
2022/01/31 09:01:22;;;;;;;25.90;16.48;;;333.20;1305.60;;;;;;4954619;29;20099;-60
2022/01/31 09:06:26;;;;;;;20.23;11.77;;;358.90;1203.20;;;;;;4954453;28;20030;-60
2022/01/31 09:08:52;;;;;;;43.80;33.53;;;384.20;1152.00;;;;;;4954755;29;20432;-60
2022/01/31 09:11:18;;;;;;;33.33;22.20;;;409.80;1152.00;;;;;;4954309;29;20077;-60
2022/01/31 09:13:44;;;;;;;49.00;31.70;;;410.30;1126.40;;;;;;4954620;29;20035;-57
2022/01/31 09:16:10;;;;;;;44.92;30.92;;;410.30;1100.80;;;;;;4937243;29;20038;-60
2022/01/31 09:18:36;;;;;;;37.22;28.83;;;410.50;1100.80;;;;;;4954299;29;20035;-59
2022/01/31 09:21:03;;;;;;;51.95;44.83;;;435.80;1049.60;;;;;;4954584;29;20023;-59
2022/01/31 09:23:29;;;;;;;115.68;89.47;;;460.90;1049.60;;;;;;4954233;29;20115;-60
2022/01/31 09:25:56;;;;;;;17.05;9.15;;;461.30;1024.00;;;;;;4954252;29;20051;-59
2022/01/31 09:28:23;;;;;;;14.30;7.95;;;486.50;998.40;;;;;;4954247;29;20027;-60
2022/01/31 09:30:49;;;;;;;25.00;17.05;;;486.90;947.20;;;;;;4954017;29;20382;-60
2022/01/31 09:33:15;;;;;;;12.43;7.18;;;512.40;947.20;;;;;;4953609;29;20039;-60
2022/01/31 09:35:42;;;;;;;11.27;8.00;;;512.40;896.00;;;;;;4954088;29;20051;-60
2022/01/31 09:38:12;;;;;;;73.70;65.43;;;487.30;896.00;;;;;;4953810;29;20027;-60
2022/01/31 09:40:38;;;;;;;25.98;14.85;;;486.70;947.20;;;;;;4953021;29;20366;-60
2022/01/31 09:51:07;;;;;;;31.80;27.65;;;435.30;1049.60;;;;;;4953889;29;20043;-60
2022/01/31 09:53:36;;;;;;;20.88;17.10;;;409.70;1075.20;;;;;;4936511;29;20131;-60
2022/01/31 09:56:03;;;;;;;66.93;52.33;;;409.60;1075.20;;;;;;4953795;29;20393;-60
2022/01/31 09:58:29;;;;;;;55.90;43.72;;;384.30;1075.20;;;;;;4953627;29;20035;-60
2022/01/31 10:01:30;;;;;;;19.50;12.30;;;359.10;1126.40;;;;;;4953542;29;20028;-59
2022/01/31 10:03:58;;;;;;;96.97;66.22;;;359.00;1126.40;;;;;;4951051;29;20374;-59
2022/01/31 10:06:34;;;;;;;153.18;105.95;;;359.00;1152.00;;;;;;4951449;28;20038;-59
2022/01/31 10:09:05;;;;;;;27.75;17.90;;;358.80;1152.00;;;;;;4951310;28;20509;-60
2022/01/31 10:11:40;;;;;;;33.30;23.25;;;333.70;1177.60;;;;;;4951372;29;20038;-59
2022/01/31 10:16:56;;;;;;;32.42;24.77;;;359.00;1152.00;;;;;;4950376;28;20049;-59
2022/01/31 10:19:22;;;;;;;34.67;23.58;;;384.00;1126.40;;;;;;4951160;29;20525;-60
2022/01/31 10:22:00;;;;;;;30.10;22.73;;;384.00;1126.40;;;;;;4950953;29;20032;-60
2022/01/31 10:24:28;;;;;;;22.40;15.23;;;384.40;1126.40;;;;;;4950792;29;20466;-60
2022/01/31 10:26:54;;;;;;;38.88;31.77;;;384.40;1100.80;;;;;;4951064;29;20066;-59
2022/01/31 10:29:22;;;;;;;29.88;22.55;;;384.80;1100.80;;;;;;4951070;29;20042;-60
2022/01/31 10:32:05;;;;;;;34.03;25.73;;;384.70;1100.80;;;;;;4950656;29;20031;-60
2022/01/31 10:34:37;;;;;;;27.65;21.23;;;384.30;1100.80;;;;;;4950736;29;20621;-59
2022/01/31 10:37:06;;;;;;;27.95;23.02;;;359.10;1152.00;;;;;;4950914;29;20028;-60
2022/01/31 10:53:54;;;;;;;96.97;64.32;;;333.30;1228.80;;;;;;4952695;29;20610;-59
2022/01/31 10:56:20;;;;;;;94.22;58.33;;;333.30;1228.80;;;;;;4952624;29;20437;-59
2022/01/31 10:59:08;;;;;;;65.78;41.35;;;333.50;1203.20;;;;;;4935448;29;20055;-60
2022/01/31 11:01:33;;;;;;;38.08;26.02;;;333.40;1203.20;;;;;;4952499;29;20038;-59
2022/01/31 11:04:07;;;;;;;35.15;23.85;;;333.60;1203.20;;;;;;4952493;29;20031;-59
2022/01/31 11:06:33;;;;;;;20.80;16.67;;;333.40;1203.20;;;;;;4952408;29;20031;-58
2022/01/31 11:09:11;;;;;;;63.38;38.22;;;333.20;1203.20;;;;;;4952328;28;20039;-60
2022/01/31 11:11:40;;;;;;;83.15;56.22;;;333.00;1254.40;;;;;;4952252;29;20057;-59
2022/01/31 11:14:07;;;;;;;130.80;82.05;;;332.90;1254.40;;;;;;4952126;29;20035;-60
2022/01/31 11:16:34;;;;;;;108.18;66.10;;;308.10;1228.80;;;;;;4952278;29;20023;-58
2022/01/31 11:19:06;;;;;;;76.65;48.65;;;332.90;1280.00;;;;;;4952422;29;20061;-56
2022/01/31 11:21:35;;;;;;;79.70;47.13;;;308.10;1254.40;;;;;;4952290;29;20031;-60
2022/01/31 11:24:11;;;;;;;73.93;49.10;;;308.10;1228.80;;;;;;4952080;29;20405;-58
2022/01/31 11:26:38;;;;;;;48.78;31.13;;;333.00;1254.40;;;;;;4951965;29;20032;-61
2022/01/31 11:29:07;;;;;;;45.42;30.50;;;333.00;1280.00;;;;;;4951865;28;20035;-57
2022/01/31 11:31:35;;;;;;;59.88;38.05;;;332.80;1280.00;;;;;;4952133;29;20019;-59
2022/01/31 11:34:01;;;;;;;121.85;76.75;;;332.80;1305.60;;;;;;4951951;29;20424;-60
2022/01/31 11:36:28;;;;;;;70.90;50.15;;;308.10;1254.40;;;;;;4951836;29;20508;-60
2022/01/31 11:38:55;;;;;;;47.72;34.63;;;332.90;1254.40;;;;;;4951974;29;20469;-61
2022/01/31 11:41:21;;;;;;;56.38;35.10;;;308.10;1228.80;;;;;;4952016;29;20481;-60
2022/01/31 11:43:55;;;;;;;56.97;36.33;;;308.10;1228.80;;;;;;4951469;29;20027;-59
2022/01/31 11:46:25;;;;;;;44.10;24.92;;;307.90;1254.40;;;;;;4950295;29;20027;-60
2022/01/31 11:48:54;;;;;;;50.53;33.25;;;308.00;1254.40;;;;;;4950441;29;20042;-60
2022/01/31 11:51:21;;;;;;;41.80;25.52;;;332.90;1280.00;;;;;;4950428;29;20019;-60
2022/01/31 11:53:47;;;;;;;90.85;73.85;;;333.00;1254.40;;;;;;4950035;29;20121;-58
2022/01/31 11:56:20;;;;;;;53.70;48.38;;;333.00;1254.40;;;;;;4950316;29;20087;-61
2022/01/31 11:58:52;;;;;;;20.70;18.45;;;332.90;1254.40;;;;;;4949796;29;20028;-59
2022/01/31 12:01:19;;;;;;;39.13;20.17;;;308.10;1254.40;;;;;;4950334;29;20095;-60
2022/01/31 12:03:57;;;;;;;20.35;15.68;;;308.00;1254.40;;;;;;4950223;29;20078;-60
2022/01/31 12:06:25;;;;;;;27.98;20.40;;;308.00;1254.40;;;;;;4949511;29;20037;-61
2022/01/31 12:08:53;;;;;;;16.25;11.65;;;308.00;1254.40;;;;;;4948999;29;20023;-59
2022/01/31 12:11:28;;;;;;;35.10;20.67;;;307.80;1254.40;;;;;;4948406;29;20024;-58
2022/01/31 12:13:59;;;;;;;43.92;33.08;;;307.80;1254.40;;;;;;4944199;29;20536;-59
2022/01/31 12:20:02;;;;;;;66.90;37.45;;;307.80;1254.40;;;;;;4946218;29;20045;-58
2022/01/31 12:22:47;;;;;;;23.33;15.07;;;307.80;1228.80;;;;;;4942993;29;20082;-59
2022/01/31 12:25:23;;;;;;;28.63;19.88;;;307.80;1254.40;;;;;;4948570;29;20508;-59
2022/01/31 12:27:49;;;;;;;19.38;12.48;;;307.70;1254.40;;;;;;4931389;29;20153;-59
2022/01/31 12:30:33;;;;;;;56.17;31.67;;;308.00;1254.40;;;;;;4949179;29;20486;-58
2022/01/31 12:32:59;;;;;;;42.33;28.25;;;307.70;1254.40;;;;;;4944985;29;20035;-57
2022/01/31 12:35:36;;;;;;;73.45;44.75;;;307.70;1254.40;;;;;;4948504;29;20051;-59
2022/01/31 12:38:04;;;;;;;44.50;29.45;;;307.70;1280.00;;;;;;4945623;29;20019;-59
2022/01/31 12:40:40;;;;;;;24.33;16.10;;;307.80;1228.80;;;;;;4950947;28;20426;-61
2022/01/31 12:46:04;;;;;;;40.22;26.30;;;307.90;1254.40;;;;;;4949614;29;20441;-60
2022/01/31 12:48:30;;;;;;;48.42;26.83;;;308.00;1254.40;;;;;;4952008;29;20032;-58
2022/01/31 12:50:56;;;;;;;55.28;30.13;;;307.90;1254.40;;;;;;4951680;29;20067;-57